Time;durP1;ratioP1;P1;durP2;ratioP2;P2;SDS_P1;SDS_P2;PMS_P1;PMS_P2;Temp;Humidity;BMP_temperature;BMP_pressure;BME280_temperature;BME280_humidity;BME280_pressure;Samples;Min_cycle;Max_cycle;Signal;HPM_P1;HPM_P2
2023/12/05 00:00:21;;;;;;;3.08;1.88;;;6.80;99.90;;;;;;5002307;28;20029;-79
2023/12/05 00:02:47;;;;;;;2.30;2.10;;;6.80;99.90;;;;;;4986001;28;20491;-79
2023/12/05 00:05:12;;;;;;;1.48;1.08;;;6.80;99.90;;;;;;5001342;28;20505;-78
2023/12/05 00:07:38;;;;;;;5.68;2.85;;;6.80;99.90;;;;;;4987900;28;20487;-78
2023/12/05 00:10:05;;;;;;;2.45;2.17;;;6.80;99.90;;;;;;4999227;28;20057;-79
2023/12/05 00:12:30;;;;;;;3.53;3.22;;;6.80;99.90;;;;;;4989948;28;20045;-79
2023/12/05 00:14:56;;;;;;;5.30;3.25;;;6.80;99.90;;;;;;4996459;28;20089;-78
2023/12/05 00:17:22;;;;;;;2.95;2.65;;;6.80;99.90;;;;;;5003709;28;20491;-78
2023/12/05 00:19:47;;;;;;;5.10;4.45;;;6.80;99.90;;;;;;4993994;28;20030;-78
2023/12/05 00:22:13;;;;;;;5.68;2.55;;;6.80;99.90;;;;;;5001941;28;20125;-78
2023/12/05 00:24:39;;;;;;;7.95;3.72;;;6.80;99.90;;;;;;4995442;28;20034;-77
2023/12/05 00:27:05;;;;;;;4.30;3.15;;;6.90;99.90;;;;;;5003264;28;20101;-78
2023/12/05 00:29:30;;;;;;;2.42;2.15;;;6.80;99.90;;;;;;4991072;28;20041;-78
2023/12/05 00:31:56;;;;;;;10.60;2.92;;;6.80;99.90;;;;;;5007041;28;20092;-78
2023/12/05 00:34:21;;;;;;;5.43;3.13;;;6.80;99.90;;;;;;4990676;28;20597;-76
2023/12/05 00:36:48;;;;;;;2.78;2.28;;;6.80;99.90;;;;;;5003778;28;20041;-80
2023/12/05 00:39:14;;;;;;;3.58;2.33;;;6.80;99.90;;;;;;4994077;28;20446;-80
2023/12/05 00:41:40;;;;;;;1.88;1.75;;;6.80;99.90;;;;;;5003350;28;20030;-79
2023/12/05 00:44:06;;;;;;;2.92;2.53;;;6.80;99.90;;;;;;4997207;28;20026;-80
2023/12/05 00:46:31;;;;;;;2.60;2.40;;;6.70;99.90;;;;;;5006503;28;20026;-79
2023/12/05 00:48:57;;;;;;;6.22;2.13;;;6.70;99.90;;;;;;4989496;28;20816;-79
2023/12/05 00:51:23;;;;;;;4.03;2.95;;;6.70;99.90;;;;;;5006207;28;20517;-79
2023/12/05 00:53:48;;;;;;;3.38;1.40;;;6.70;99.90;;;;;;5000406;28;20144;-81
2023/12/05 00:56:14;;;;;;;2.67;2.47;;;6.70;99.90;;;;;;4997886;28;20029;-79
2023/12/05 00:58:40;;;;;;;3.67;2.17;;;6.70;99.90;;;;;;5005963;28;20037;-79
2023/12/05 01:01:07;;;;;;;1.70;1.15;;;6.70;99.90;;;;;;4991793;28;20068;-78
2023/12/05 01:03:33;;;;;;;4.63;2.10;;;6.70;99.90;;;;;;5004938;28;20048;-79
2023/12/05 01:05:59;;;;;;;2.13;1.92;;;6.70;99.90;;;;;;4993270;28;20033;-80
2023/12/05 01:08:24;;;;;;;2.28;2.10;;;6.70;99.90;;;;;;5001290;28;20482;-79
2023/12/05 01:10:50;;;;;;;3.88;2.60;;;6.70;99.90;;;;;;4990648;28;20080;-79
2023/12/05 01:13:15;;;;;;;5.72;2.50;;;6.70;99.90;;;;;;5004252;28;20108;-79
2023/12/05 01:15:41;;;;;;;2.55;2.05;;;6.70;99.90;;;;;;5003404;28;20068;-78
2023/12/05 01:18:07;;;;;;;2.47;2.28;;;6.70;99.90;;;;;;5007580;28;20136;-79
2023/12/05 01:20:33;;;;;;;1.58;1.35;;;6.70;99.90;;;;;;4994725;28;20551;-79
2023/12/05 01:22:59;;;;;;;1.92;1.75;;;6.70;99.90;;;;;;5003758;28;20046;-79
2023/12/05 01:25:24;;;;;;;5.65;2.58;;;6.70;99.90;;;;;;4994175;28;20080;-79
2023/12/05 01:27:51;;;;;;;2.25;1.42;;;6.60;99.90;;;;;;4999345;28;20026;-79
2023/12/05 01:30:17;;;;;;;3.78;1.55;;;6.60;99.90;;;;;;4994407;28;20590;-79
2023/12/05 01:32:43;;;;;;;3.40;3.10;;;6.70;99.90;;;;;;5005380;28;20030;-78
2023/12/05 01:35:09;;;;;;;2.17;1.30;;;6.70;99.90;;;;;;4998633;28;20030;-79
2023/12/05 01:37:37;;;;;;;1.70;1.48;;;6.70;99.90;;;;;;4995052;28;20026;-78
2023/12/05 01:40:05;;;;;;;3.47;1.67;;;6.70;99.90;;;;;;5001517;28;20038;-79
2023/12/05 01:42:35;;;;;;;2.75;1.65;;;6.60;99.90;;;;;;5005748;28;20018;-79
2023/12/05 01:45:01;;;;;;;2.08;1.55;;;6.60;99.90;;;;;;5003411;28;20053;-79
2023/12/05 01:47:27;;;;;;;1.95;1.63;;;6.60;99.90;;;;;;4994453;28;20117;-79
2023/12/05 01:49:52;;;;;;;1.65;1.52;;;6.60;99.90;;;;;;5000324;28;20132;-79
2023/12/05 01:52:19;;;;;;;2.17;1.98;;;6.60;99.90;;;;;;4994994;28;20540;-79
2023/12/05 01:54:45;;;;;;;1.48;1.08;;;6.60;99.90;;;;;;5001072;28;20070;-79
2023/12/05 01:57:11;;;;;;;1.80;1.48;;;6.60;99.90;;;;;;4990147;28;20026;-79
2023/12/05 01:59:36;;;;;;;2.17;1.50;;;6.60;99.90;;;;;;5002667;28;20038;-79
2023/12/05 02:02:02;;;;;;;1.48;1.38;;;6.60;99.90;;;;;;4989946;28;20035;-79
2023/12/05 02:04:30;;;;;;;1.98;1.17;;;6.60;99.90;;;;;;5004548;28;20053;-78
2023/12/05 02:06:56;;;;;;;1.20;1.20;;;6.60;99.90;;;;;;4993362;28;20034;-79
2023/12/05 02:09:22;;;;;;;1.23;1.13;;;6.60;99.90;;;;;;4999702;28;20022;-79
2023/12/05 02:11:49;;;;;;;3.25;1.90;;;6.50;99.90;;;;;;4988640;28;20596;-78
2023/12/05 02:14:15;;;;;;;1.95;1.63;;;6.50;99.90;;;;;;5000823;28;20030;-78
2023/12/05 02:16:51;;;;;;;1.00;0.90;;;6.40;99.90;;;;;;4985596;28;20038;-78
2023/12/05 02:19:31;;;;;;;2.22;2.03;;;6.40;99.90;;;;;;4999915;28;20041;-78
2023/12/05 02:22:01;;;;;;;2.20;2.05;;;6.40;99.90;;;;;;4988664;28;20029;-79
2023/12/05 02:24:45;;;;;;;2.42;1.40;;;6.40;99.90;;;;;;5002408;28;20469;-78
2023/12/05 02:27:39;;;;;;;3.90;1.95;;;6.40;99.90;;;;;;4991400;28;20301;-78
2023/12/05 02:30:05;;;;;;;1.98;1.83;;;6.40;99.90;;;;;;5000041;28;20465;-79
2023/12/05 02:32:31;;;;;;;1.63;1.52;;;6.40;99.90;;;;;;4994361;28;20125;-78
2023/12/05 02:34:57;;;;;;;1.98;1.75;;;6.40;99.90;;;;;;5010853;28;20089;-77
2023/12/05 02:37:43;;;;;;;1.75;1.60;;;6.40;99.90;;;;;;5002563;28;20034;-79
2023/12/05 02:40:19;;;;;;;1.55;1.40;;;6.40;99.90;;;;;;5003796;28;20057;-77
2023/12/05 02:42:49;;;;;;;1.55;1.15;;;6.40;99.90;;;;;;4994873;28;20037;-79
2023/12/05 02:45:18;;;;;;;0.95;0.95;;;6.40;99.90;;;;;;5009499;28;20524;-77
2023/12/05 02:47:47;;;;;;;1.17;1.07;;;6.40;99.90;;;;;;4997030;28;20080;-77
2023/12/05 02:50:15;;;;;;;9.82;2.05;;;6.40;99.90;;;;;;4999100;28;20509;-77
2023/12/05 02:52:40;;;;;;;5.80;1.83;;;6.40;99.90;;;;;;5001574;28;20448;-78
2023/12/05 02:55:06;;;;;;;2.17;0.88;;;6.40;99.90;;;;;;4993206;28;20386;-78
2023/12/05 02:57:32;;;;;;;1.30;0.73;;;6.50;99.90;;;;;;5002271;28;20040;-79
2023/12/05 02:59:57;;;;;;;1.30;0.93;;;6.40;99.90;;;;;;4992076;28;20041;-76
2023/12/05 03:02:23;;;;;;;2.53;1.58;;;6.40;99.90;;;;;;4997758;28;20381;-77
2023/12/05 03:04:49;;;;;;;3.70;1.70;;;6.40;99.90;;;;;;4987748;28;20840;-77
2023/12/05 03:07:14;;;;;;;1.27;0.98;;;6.40;99.90;;;;;;5007983;28;20029;-77
2023/12/05 03:09:40;;;;;;;1.85;0.90;;;6.40;99.90;;;;;;5003649;28;20407;-77
2023/12/05 03:12:06;;;;;;;1.17;1.10;;;6.50;99.90;;;;;;4998509;28;20034;-76
2023/12/05 03:14:32;;;;;;;0.73;0.73;;;6.50;99.90;;;;;;4984797;28;20208;-77
2023/12/05 03:16:57;;;;;;;2.78;2.47;;;6.40;99.90;;;;;;4993074;28;20038;-77
2023/12/05 03:19:23;;;;;;;1.90;1.73;;;6.50;99.90;;;;;;4986493;28;20113;-76
2023/12/05 03:21:49;;;;;;;1.27;1.17;;;6.40;99.90;;;;;;4999761;28;20034;-76
2023/12/05 03:24:14;;;;;;;1.95;1.80;;;6.40;99.90;;;;;;4987638;28;20025;-75
2023/12/05 03:26:40;;;;;;;5.70;2.22;;;6.50;99.90;;;;;;4998400;28;20073;-75
2023/12/05 03:29:05;;;;;;;1.13;1.13;;;6.50;99.90;;;;;;4985920;28;20045;-76
2023/12/05 03:31:35;;;;;;;2.10;1.63;;;6.50;99.90;;;;;;5000437;28;20034;-76
2023/12/05 03:34:02;;;;;;;2.85;1.25;;;6.50;99.90;;;;;;5001885;28;20030;-76
2023/12/05 03:36:27;;;;;;;1.75;1.65;;;6.50;99.90;;;;;;5001754;28;20044;-77
2023/12/05 03:38:53;;;;;;;0.63;0.63;;;6.40;99.90;;;;;;5008483;28;20050;-78
2023/12/05 03:41:19;;;;;;;1.75;0.60;;;6.40;99.90;;;;;;4990496;28;20030;-77
2023/12/05 03:43:44;;;;;;;3.60;1.67;;;6.50;99.90;;;;;;4994259;28;20052;-76
2023/12/05 03:46:10;;;;;;;1.10;0.82;;;6.40;99.90;;;;;;4986959;28;20038;-78
2023/12/05 03:48:36;;;;;;;1.00;0.90;;;6.50;99.90;;;;;;4994178;28;20034;-77
2023/12/05 03:51:02;;;;;;;1.60;1.50;;;6.50;99.90;;;;;;4986495;28;20037;-77
2023/12/05 03:53:28;;;;;;;0.95;0.95;;;6.50;99.90;;;;;;5005295;28;20563;-77
2023/12/05 03:55:54;;;;;;;1.02;1.00;;;6.40;99.90;;;;;;4988197;28;20072;-77
2023/12/05 03:58:19;;;;;;;1.00;0.90;;;6.40;99.90;;;;;;5001128;28;20066;-77
2023/12/05 04:00:45;;;;;;;1.85;1.30;;;6.40;99.90;;;;;;4993645;28;21115;-77
2023/12/05 04:03:11;;;;;;;1.20;1.15;;;6.40;99.90;;;;;;4998668;28;20069;-77
2023/12/05 04:05:38;;;;;;;1.25;1.05;;;6.50;99.90;;;;;;4993517;28;20117;-77
2023/12/05 04:08:04;;;;;;;1.25;1.15;;;6.50;99.90;;;;;;5007534;28;20037;-77
2023/12/05 04:10:30;;;;;;;0.80;0.80;;;6.40;99.90;;;;;;4987765;28;20099;-77
2023/12/05 04:12:56;;;;;;;1.35;1.13;;;6.50;99.90;;;;;;5003300;28;20038;-77
2023/12/05 04:15:22;;;;;;;0.75;0.75;;;6.50;99.90;;;;;;5000121;28;20513;-77
2023/12/05 04:17:47;;;;;;;0.77;0.77;;;6.50;99.90;;;;;;4988079;28;20041;-75
2023/12/05 04:20:13;;;;;;;0.82;0.77;;;6.50;99.90;;;;;;5001635;28;20065;-76
2023/12/05 04:22:39;;;;;;;1.08;0.93;;;6.50;99.90;;;;;;4984983;28;20038;-76
2023/12/05 04:25:05;;;;;;;0.70;0.70;;;6.50;99.90;;;;;;5002200;28;20036;-76
2023/12/05 04:27:32;;;;;;;0.55;0.55;;;6.50;99.90;;;;;;4991566;28;21145;-75
2023/12/05 04:29:58;;;;;;;1.05;0.95;;;6.40;99.90;;;;;;5000682;28;20026;-76
2023/12/05 04:32:23;;;;;;;1.63;1.25;;;6.40;99.90;;;;;;4991316;28;20045;-76
2023/12/05 04:34:49;;;;;;;1.05;1.00;;;6.40;99.90;;;;;;5003677;28;20038;-76
2023/12/05 04:37:14;;;;;;;0.68;0.50;;;6.50;99.90;;;;;;4987123;28;20030;-76
2023/12/05 04:39:40;;;;;;;2.20;1.67;;;6.40;99.90;;;;;;5006206;28;20109;-76
2023/12/05 04:42:06;;;;;;;0.70;0.70;;;6.40;99.90;;;;;;4989629;28;20029;-76
2023/12/05 04:44:32;;;;;;;0.90;0.90;;;6.40;99.90;;;;;;4998515;28;20060;-77
2023/12/05 04:46:58;;;;;;;0.68;0.68;;;6.40;99.90;;;;;;4989959;28;20080;-78
2023/12/05 04:49:24;;;;;;;1.20;1.10;;;6.40;99.90;;;;;;5002057;28;20077;-76
2023/12/05 04:51:49;;;;;;;1.25;1.05;;;6.40;99.90;;;;;;4989418;28;20056;-76
2023/12/05 04:54:15;;;;;;;0.70;0.70;;;6.40;99.90;;;;;;5046246;22;20049;-70
2023/12/05 04:56:42;;;;;;;0.63;0.55;;;6.40;99.90;;;;;;5036769;28;20191;-71
2023/12/05 04:59:08;;;;;;;0.95;0.77;;;6.40;99.90;;;;;;5031194;28;20026;-71
2023/12/05 05:01:33;;;;;;;1.73;1.40;;;6.40;99.90;;;;;;5037850;28;20047;-71
2023/12/05 05:03:59;;;;;;;1.23;1.02;;;6.40;99.90;;;;;;5013840;28;20033;-71
2023/12/05 05:06:25;;;;;;;1.58;1.10;;;6.30;99.90;;;;;;5035758;28;20116;-71
2023/12/05 05:08:51;;;;;;;1.35;1.25;;;6.30;99.90;;;;;;5022973;28;20146;-71
2023/12/05 05:11:16;;;;;;;1.13;1.08;;;6.30;99.90;;;;;;5023030;28;20037;-71
2023/12/05 05:13:42;;;;;;;1.30;1.20;;;6.40;99.90;;;;;;5012868;28;20400;-71
2023/12/05 05:16:09;;;;;;;0.95;0.82;;;6.30;99.90;;;;;;5020596;28;20082;-71
2023/12/05 05:18:35;;;;;;;0.52;0.52;;;6.30;99.90;;;;;;5013971;28;20121;-70
2023/12/05 05:21:00;;;;;;;0.70;0.60;;;6.30;99.90;;;;;;5027985;28;20450;-72
2023/12/05 05:23:26;;;;;;;1.10;1.05;;;6.30;99.90;;;;;;5015734;28;20056;-71
2023/12/05 05:25:52;;;;;;;1.05;0.88;;;6.30;99.90;;;;;;5026516;28;20454;-71
2023/12/05 05:28:17;;;;;;;1.73;1.63;;;6.30;99.90;;;;;;5020908;28;20079;-71
2023/12/05 05:30:43;;;;;;;0.93;0.93;;;6.30;99.90;;;;;;5026718;28;20537;-71
2023/12/05 05:33:08;;;;;;;0.90;0.90;;;6.30;99.90;;;;;;5025126;28;20065;-72
2023/12/05 05:35:34;;;;;;;1.15;0.75;;;6.30;99.90;;;;;;5031312;28;20322;-71
2023/12/05 05:38:00;;;;;;;0.95;0.93;;;6.30;99.90;;;;;;5025558;28;20083;-71
2023/12/05 05:40:27;;;;;;;1.50;1.40;;;6.30;99.90;;;;;;5018473;28;20550;-71
2023/12/05 05:42:53;;;;;;;1.08;0.98;;;6.30;99.90;;;;;;5028401;28;20052;-72
2023/12/05 05:45:18;;;;;;;1.02;1.00;;;6.30;99.90;;;;;;5017496;28;20033;-72
2023/12/05 05:47:44;;;;;;;0.82;0.70;;;6.30;99.90;;;;;;5026395;28;20491;-71
2023/12/05 05:50:11;;;;;;;1.45;0.95;;;6.20;99.90;;;;;;5015060;28;20524;-71
2023/12/05 05:52:37;;;;;;;0.73;0.70;;;6.30;99.90;;;;;;5028418;28;20033;-71
2023/12/05 05:55:04;;;;;;;1.08;0.43;;;6.30;99.90;;;;;;5016536;28;20068;-71
2023/12/05 05:57:30;;;;;;;1.65;1.15;;;6.30;99.90;;;;;;5021570;28;20045;-71
2023/12/05 05:59:55;;;;;;;0.63;0.63;;;6.20;99.90;;;;;;5018671;28;20037;-71
2023/12/05 06:02:21;;;;;;;0.63;0.43;;;6.20;99.90;;;;;;5030123;28;20639;-71
2023/12/05 06:04:47;;;;;;;1.00;0.98;;;6.20;99.90;;;;;;5018130;28;21315;-71
2023/12/05 06:07:12;;;;;;;1.25;0.80;;;6.30;99.90;;;;;;5030342;28;20037;-71
2023/12/05 06:09:38;;;;;;;0.40;0.40;;;6.30;99.90;;;;;;5013810;28;20071;-72
2023/12/05 06:12:04;;;;;;;0.75;0.75;;;6.30;99.90;;;;;;5031397;28;20032;-71
2023/12/05 06:14:30;;;;;;;2.97;1.20;;;6.20;99.90;;;;;;5021245;28;20041;-72
2023/12/05 06:16:56;;;;;;;1.98;1.15;;;6.20;99.90;;;;;;5014504;28;20037;-71
2023/12/05 06:19:21;;;;;;;1.00;0.80;;;6.20;99.90;;;;;;5014830;28;20041;-71
2023/12/05 06:21:47;;;;;;;2.05;0.68;;;6.20;99.90;;;;;;5015209;28;20049;-71
2023/12/05 06:24:13;;;;;;;2.10;1.42;;;6.20;99.90;;;;;;5026314;28;20432;-71
2023/12/05 06:26:38;;;;;;;1.45;1.00;;;6.30;99.90;;;;;;5011982;28;20389;-71
2023/12/05 06:29:04;;;;;;;0.88;0.63;;;6.30;99.90;;;;;;5017410;28;21485;-71
2023/12/05 06:31:30;;;;;;;1.13;0.65;;;6.30;99.90;;;;;;5014459;28;20517;-70
2023/12/05 06:33:56;;;;;;;1.23;0.63;;;6.30;99.90;;;;;;5030635;28;20071;-70
2023/12/05 06:36:21;;;;;;;0.55;0.55;;;6.30;99.90;;;;;;5015092;28;20120;-71
2023/12/05 06:38:47;;;;;;;1.58;1.08;;;6.30;99.90;;;;;;5026684;28;20052;-71
2023/12/05 06:41:12;;;;;;;0.95;0.85;;;6.30;99.90;;;;;;5021201;28;20056;-71
2023/12/05 06:43:38;;;;;;;1.75;1.60;;;6.30;99.90;;;;;;5027869;28;20119;-72
2023/12/05 06:46:04;;;;;;;1.13;1.00;;;6.30;99.90;;;;;;5012931;28;20117;-71
2023/12/05 06:48:29;;;;;;;2.42;0.70;;;6.30;99.90;;;;;;5028703;28;20112;-70
2023/12/05 06:50:55;;;;;;;0.95;0.93;;;6.40;99.90;;;;;;5015572;28;20032;-71
2023/12/05 06:53:21;;;;;;;0.98;0.90;;;6.40;99.90;;;;;;5031082;28;20045;-71
2023/12/05 06:55:48;;;;;;;1.42;1.33;;;6.40;99.90;;;;;;5021955;28;20516;-71
2023/12/05 06:58:13;;;;;;;1.55;1.25;;;6.30;99.90;;;;;;5012677;28;20194;-71
2023/12/05 07:00:39;;;;;;;1.15;1.08;;;6.40;99.90;;;;;;5029622;28;20826;-71
2023/12/05 07:03:05;;;;;;;2.13;1.65;;;6.40;99.90;;;;;;5013929;28;20662;-71
2023/12/05 07:05:30;;;;;;;1.25;1.15;;;6.40;99.90;;;;;;5022041;28;20075;-70
2023/12/05 07:07:56;;;;;;;1.25;1.15;;;6.40;99.90;;;;;;5018680;28;20485;-72
2023/12/05 07:10:23;;;;;;;1.42;1.33;;;6.40;99.90;;;;;;5020887;28;20021;-70
2023/12/05 07:12:49;;;;;;;1.13;0.98;;;6.40;99.90;;;;;;5015880;28;20060;-71
2023/12/05 07:15:14;;;;;;;0.93;0.93;;;6.40;99.90;;;;;;5029309;28;20129;-72
2023/12/05 07:17:40;;;;;;;1.70;1.35;;;6.40;99.90;;;;;;5006545;28;20026;-71
2023/12/05 07:20:06;;;;;;;2.35;1.77;;;6.40;99.90;;;;;;5025181;28;20036;-71
2023/12/05 07:22:33;;;;;;;1.52;1.42;;;6.40;99.90;;;;;;5017432;28;20021;-71
2023/12/05 07:24:59;;;;;;;1.35;0.90;;;6.40;99.90;;;;;;5020358;28;20505;-71
2023/12/05 07:27:24;;;;;;;4.30;1.27;;;6.40;99.90;;;;;;5010941;28;20037;-70
2023/12/05 07:29:50;;;;;;;1.17;1.08;;;6.40;99.90;;;;;;5023652;28;20036;-70
2023/12/05 07:32:15;;;;;;;3.17;2.35;;;6.40;99.90;;;;;;5014075;28;20055;-71
2023/12/05 07:34:43;;;;;;;2.08;1.70;;;6.40;99.90;;;;;;5027435;28;20064;-70
2023/12/05 07:37:08;;;;;;;2.88;1.67;;;6.50;99.90;;;;;;5012098;28;20029;-71
2023/12/05 07:39:34;;;;;;;2.38;1.92;;;6.40;99.90;;;;;;5022121;28;20044;-71
2023/12/05 07:42:00;;;;;;;2.97;1.92;;;6.40;99.90;;;;;;5017656;28;20038;-72
2023/12/05 07:44:26;;;;;;;2.63;1.98;;;6.40;99.90;;;;;;5009503;28;20116;-71
2023/12/05 07:46:52;;;;;;;2.63;2.13;;;6.30;99.90;;;;;;5018486;28;20092;-72
2023/12/05 07:49:18;;;;;;;2.17;1.98;;;6.30;99.90;;;;;;5009696;28;20641;-72
2023/12/05 07:51:44;;;;;;;3.08;2.63;;;6.30;99.90;;;;;;5020474;28;20037;-72
2023/12/05 07:54:10;;;;;;;3.67;2.08;;;6.30;99.90;;;;;;5016551;28;20071;-72
2023/12/05 07:56:35;;;;;;;2.20;1.73;;;6.30;99.90;;;;;;5023036;28;20152;-71
2023/12/05 07:59:01;;;;;;;3.03;2.60;;;6.30;99.90;;;;;;5005325;28;20528;-72
2023/12/05 08:01:27;;;;;;;1.52;1.02;;;6.30;99.90;;;;;;5023740;28;20271;-71
2023/12/05 08:03:53;;;;;;;2.97;1.33;;;6.30;99.90;;;;;;5005990;28;20442;-71
2023/12/05 08:06:19;;;;;;;5.03;2.53;;;6.30;99.90;;;;;;5017839;28;20036;-71
2023/12/05 08:08:44;;;;;;;3.55;1.70;;;6.30;99.90;;;;;;5003560;28;20968;-72
2023/12/05 08:11:11;;;;;;;1.77;1.60;;;6.30;99.90;;;;;;5015994;28;20910;-72
2023/12/05 08:13:37;;;;;;;1.88;1.70;;;6.30;99.90;;;;;;5014000;28;20041;-72
2023/12/05 08:16:03;;;;;;;3.28;1.80;;;6.40;99.90;;;;;;5024480;28;20438;-71
2023/12/05 08:18:29;;;;;;;2.30;1.88;;;6.30;99.90;;;;;;5018222;28;20044;-71
2023/12/05 08:20:54;;;;;;;3.33;2.63;;;6.30;99.90;;;;;;5014698;28;20037;-73
2023/12/05 08:23:20;;;;;;;2.28;1.85;;;6.40;99.90;;;;;;5018729;28;20030;-72
2023/12/05 08:25:46;;;;;;;4.30;1.98;;;6.40;99.90;;;;;;5012703;28;20032;-71
2023/12/05 08:28:12;;;;;;;2.33;1.52;;;6.40;99.90;;;;;;5037354;28;20034;-71
2023/12/05 08:30:38;;;;;;;2.70;2.13;;;6.40;99.90;;;;;;5018386;28;20021;-71
2023/12/05 08:33:05;;;;;;;1.52;1.40;;;6.40;99.90;;;;;;5019181;28;20555;-73
2023/12/05 08:35:31;;;;;;;1.42;1.25;;;6.50;99.90;;;;;;5008259;28;20112;-72
2023/12/05 08:37:56;;;;;;;1.92;1.50;;;6.40;99.90;;;;;;5014002;28;20778;-73
2023/12/05 08:40:22;;;;;;;2.47;2.25;;;6.50;99.90;;;;;;5001442;28;20470;-76
2023/12/05 08:42:48;;;;;;;3.40;1.75;;;6.50;99.90;;;;;;5019511;28;20033;-74
2023/12/05 08:45:14;;;;;;;1.20;1.10;;;6.50;99.90;;;;;;5004922;28;20045;-73
2023/12/05 08:47:40;;;;;;;2.30;1.58;;;6.50;99.90;;;;;;5017927;28;20405;-73
2023/12/05 08:50:07;;;;;;;3.35;1.63;;;6.50;99.90;;;;;;5007972;28;20037;-72
2023/12/05 08:52:34;;;;;;;1.50;1.00;;;6.50;99.90;;;;;;5023684;28;20033;-72
2023/12/05 08:55:01;;;;;;;3.92;1.55;;;6.50;99.90;;;;;;5011956;28;21081;-73
2023/12/05 08:57:27;;;;;;;1.63;1.52;;;6.50;99.90;;;;;;5017919;28;20189;-71
2023/12/05 08:59:53;;;;;;;2.38;1.73;;;6.60;99.90;;;;;;5013448;28;20497;-70
2023/12/05 09:02:20;;;;;;;1.17;0.98;;;6.60;99.90;;;;;;5007934;28;20034;-72
2023/12/05 09:04:46;;;;;;;3.10;1.48;;;6.60;99.90;;;;;;5014944;28;20033;-72
2023/12/05 09:07:11;;;;;;;2.47;1.58;;;6.70;99.90;;;;;;5007558;28;20029;-72
2023/12/05 09:09:41;;;;;;;2.08;1.60;;;6.60;99.90;;;;;;5018939;28;20120;-71
2023/12/05 09:12:07;;;;;;;;;;;6.60;99.90;;;;;;5005845;28;20033;-70
2023/12/05 09:14:33;;;;;;;2.63;1.85;;;6.60;99.90;;;;;;5022980;28;20367;-69
2023/12/05 09:16:59;;;;;;;2.25;1.50;;;6.60;99.90;;;;;;5010733;28;20549;-71
2023/12/05 09:19:25;;;;;;;2.00;1.77;;;6.60;99.90;;;;;;5020256;28;20111;-73
2023/12/05 09:21:52;;;;;;;1.90;1.58;;;6.60;99.90;;;;;;5004605;28;20059;-71
2023/12/05 09:24:17;;;;;;;2.50;2.30;;;6.60;99.90;;;;;;5013052;28;20038;-72
2023/12/05 09:26:43;;;;;;;4.72;3.15;;;6.60;99.90;;;;;;5005783;28;20083;-71
2023/12/05 09:29:09;;;;;;;2.75;2.50;;;6.70;99.90;;;;;;5017562;28;20033;-70
2023/12/05 09:31:35;;;;;;;1.70;1.60;;;6.70;99.90;;;;;;4998838;28;20041;-72
2023/12/05 09:34:03;;;;;;;2.65;2.17;;;6.70;99.90;;;;;;5017394;28;20480;-71
2023/12/05 09:36:30;;;;;;;2.75;2.05;;;6.80;99.90;;;;;;5005391;28;20041;-69
2023/12/05 09:38:56;;;;;;;2.05;1.67;;;6.90;99.90;;;;;;5014230;28;20041;-71
2023/12/05 09:41:22;;;;;;;1.27;1.17;;;6.90;99.90;;;;;;5011196;28;20076;-73
2023/12/05 09:43:52;;;;;;;1.63;1.52;;;6.90;99.90;;;;;;5014016;28;20041;-71
2023/12/05 09:46:19;;;;;;;;;;;7.00;99.90;;;;;;5015736;28;20033;-71
2023/12/05 09:48:48;;;;;;;1.60;1.50;;;7.00;99.90;;;;;;5007634;28;19960;-74
2023/12/05 09:51:16;;;;;;;2.45;1.90;;;7.00;99.90;;;;;;5010669;28;20033;-74
2023/12/05 09:53:43;;;;;;;2.72;2.33;;;7.00;99.90;;;;;;5002877;28;20049;-72
2023/12/05 09:56:13;;;;;;;2.65;2.10;;;7.00;99.90;;;;;;5018643;28;20045;-72
2023/12/05 09:58:46;;;;;;;2.78;2.50;;;7.10;99.90;;;;;;5002279;28;20040;-74
2023/12/05 10:01:15;;;;;;;3.88;1.95;;;7.10;99.90;;;;;;5020532;28;20033;-73
2023/12/05 10:03:42;;;;;;;1.73;1.48;;;7.10;99.90;;;;;;5007726;28;20026;-74
2023/12/05 10:06:10;;;;;;;2.65;2.03;;;7.00;99.90;;;;;;5011779;28;20032;-73
2023/12/05 10:08:37;;;;;;;2.17;2.00;;;7.00;99.90;;;;;;4997913;28;20029;-73
2023/12/05 10:11:05;;;;;;;3.55;2.50;;;7.00;99.90;;;;;;5012747;28;20044;-72
2023/12/05 10:13:31;;;;;;;2.15;2.00;;;7.10;99.90;;;;;;5002756;28;20625;-74
2023/12/05 10:15:59;;;;;;;1.60;1.48;;;7.00;99.90;;;;;;5010288;28;20435;-72
2023/12/05 10:18:27;;;;;;;1.95;1.85;;;7.00;99.90;;;;;;5001741;28;20135;-72
2023/12/05 10:20:52;;;;;;;1.70;1.60;;;7.00;99.90;;;;;;5005991;28;20110;-76
2023/12/05 10:23:18;;;;;;;2.95;2.50;;;7.00;99.90;;;;;;5002332;28;20554;-74
2023/12/05 10:25:44;;;;;;;1.98;1.77;;;7.00;99.90;;;;;;5014418;28;20025;-73
2023/12/05 10:28:12;;;;;;;3.25;1.75;;;7.00;99.90;;;;;;4997710;28;20049;-73
2023/12/05 10:30:38;;;;;;;2.05;1.83;;;7.20;99.90;;;;;;5010229;28;20271;-76
2023/12/05 10:33:10;;;;;;;1.77;1.67;;;7.10;99.90;;;;;;5006645;28;20028;-74
2023/12/05 10:35:36;;;;;;;2.03;1.25;;;7.20;99.90;;;;;;5011202;28;20026;-73
2023/12/05 10:38:13;;;;;;;4.57;2.08;;;7.10;99.90;;;;;;5016786;28;20075;-72
2023/12/05 10:41:07;;;;;;;;;;;;;;;;;;;;;
2023/12/05 10:43:34;;;;;;;1.55;1.40;;;7.00;99.90;;;;;;5022848;28;20030;-74
2023/12/05 10:46:03;;;;;;;2.15;1.55;;;7.00;99.90;;;;;;5022541;28;20030;-74
2023/12/05 10:48:29;;;;;;;;;;;7.10;99.90;;;;;;5012979;28;20033;-75
2023/12/05 10:50:56;;;;;;;1.77;1.67;;;7.20;99.90;;;;;;5014306;28;19927;-75
2023/12/05 10:53:22;;;;;;;1.67;1.58;;;7.30;99.90;;;;;;5021095;28;20045;-74
2023/12/05 10:55:48;;;;;;;1.60;1.50;;;7.30;99.90;;;;;;5011062;28;21603;-74
2023/12/05 10:58:14;;;;;;;2.17;1.80;;;7.40;99.90;;;;;;5021496;28;20028;-74
2023/12/05 11:00:41;;;;;;;5.05;2.47;;;7.40;99.90;;;;;;5010527;28;20033;-75
2023/12/05 11:03:06;;;;;;;4.28;1.50;;;7.40;99.90;;;;;;5018981;28;20095;-78
2023/12/05 11:05:34;;;;;;;2.35;2.13;;;7.40;99.90;;;;;;5012236;28;20746;-74
2023/12/05 11:08:01;;;;;;;2.35;1.60;;;7.30;99.90;;;;;;5018193;28;20084;-73
2023/12/05 11:10:27;;;;;;;3.40;1.90;;;7.30;99.90;;;;;;5008873;28;20269;-75
2023/12/05 11:12:55;;;;;;;2.03;1.83;;;7.40;99.90;;;;;;5017357;28;20961;-73
2023/12/05 11:15:36;;;;;;;3.53;2.20;;;7.30;99.90;;;;;;5007842;28;20029;-74
2023/12/05 11:18:15;;;;;;;2.13;1.35;;;7.50;99.90;;;;;;5021905;28;20547;-71
2023/12/05 11:20:58;;;;;;;2.90;1.70;;;7.60;99.90;;;;;;5010456;28;20168;-70
2023/12/05 11:23:44;;;;;;;1.40;1.33;;;7.60;99.90;;;;;;5011501;28;20030;-70
2023/12/05 11:26:49;;;;;;;1.38;1.25;;;7.50;99.90;;;;;;5000348;28;20021;-72
2023/12/05 11:29:25;;;;;;;2.05;1.48;;;7.70;99.90;;;;;;5012883;28;20043;-70
2023/12/05 11:32:16;;;;;;;3.88;2.45;;;7.80;99.90;;;;;;5008810;28;20030;-71
2023/12/05 11:34:48;;;;;;;1.92;1.55;;;7.80;99.90;;;;;;5007531;28;20074;-71
2023/12/05 11:37:47;;;;;;;2.70;2.03;;;7.70;99.90;;;;;;5004170;28;20087;-72
2023/12/05 11:40:13;;;;;;;3.20;1.90;;;7.70;99.90;;;;;;5010760;28;20064;-70
2023/12/05 11:43:05;;;;;;;1.40;1.30;;;7.70;99.90;;;;;;5013776;28;20449;-71
2023/12/05 11:45:31;;;;;;;2.50;1.58;;;7.70;99.90;;;;;;5014548;28;20033;-70
2023/12/05 11:47:58;;;;;;;2.50;2.17;;;7.70;99.90;;;;;;5017797;28;20033;-70
2023/12/05 11:50:24;;;;;;;2.08;1.60;;;7.80;99.90;;;;;;5020090;28;20397;-71
2023/12/05 11:52:50;;;;;;;2.80;1.48;;;7.70;99.90;;;;;;5015134;28;20043;-76
2023/12/05 11:55:16;;;;;;;6.55;3.05;;;7.60;99.90;;;;;;5018602;28;20158;-70
2023/12/05 11:57:41;;;;;;;2.58;1.67;;;7.60;99.90;;;;;;5009816;28;20029;-71
2023/12/05 12:00:09;;;;;;;1.83;1.48;;;7.60;99.90;;;;;;5019773;28;20884;-72
2023/12/05 12:02:42;;;;;;;2.13;1.40;;;7.60;99.90;;;;;;5009159;28;20061;-70
2023/12/05 12:05:11;;;;;;;1.85;1.75;;;7.70;99.90;;;;;;5020911;28;20578;-69
2023/12/05 12:07:49;;;;;;;2.85;1.98;;;7.70;99.90;;;;;;5006963;28;20039;-70
2023/12/05 12:10:17;;;;;;;3.58;2.35;;;7.70;99.90;;;;;;5023778;28;20041;-71
2023/12/05 12:12:45;;;;;;;3.03;2.15;;;7.50;99.90;;;;;;5037519;28;20021;-72
2023/12/05 12:15:11;;;;;;;2.63;2.42;;;7.50;99.90;;;;;;5036923;28;20500;-70
2023/12/05 12:17:40;;;;;;;3.42;1.98;;;7.50;99.90;;;;;;5020662;28;20677;-69
2023/12/05 12:20:08;;;;;;;2.45;2.28;;;7.60;99.90;;;;;;5020536;28;20129;-70
2023/12/05 12:22:34;;;;;;;2.53;1.85;;;7.70;99.90;;;;;;5007499;28;20135;-71
2023/12/05 12:25:05;;;;;;;3.25;1.90;;;7.70;99.90;;;;;;5026440;28;20874;-68
2023/12/05 12:27:35;;;;;;;2.78;2.58;;;7.70;99.90;;;;;;5005438;28;20405;-68
2023/12/05 12:30:00;;;;;;;2.20;1.75;;;7.70;99.90;;;;;;5021773;28;20130;-68
2023/12/05 12:32:26;;;;;;;2.78;2.13;;;7.70;99.90;;;;;;5013529;28;20152;-68
2023/12/05 12:34:52;;;;;;;2.58;2.38;;;7.80;99.90;;;;;;5023633;28;20485;-68
2023/12/05 12:37:18;;;;;;;6.60;2.08;;;7.80;99.90;;;;;;5018055;28;20455;-68
2023/12/05 12:39:45;;;;;;;2.58;2.25;;;7.90;99.90;;;;;;5023609;28;20436;-68
2023/12/05 12:42:11;;;;;;;2.33;1.98;;;7.80;99.90;;;;;;5008644;28;20040;-70
2023/12/05 12:44:36;;;;;;;5.05;1.85;;;7.80;99.90;;;;;;5024184;28;20405;-72
2023/12/05 12:47:04;;;;;;;2.10;1.70;;;7.70;99.90;;;;;;5024772;28;20583;-72
2023/12/05 12:49:29;;;;;;;2.30;2.10;;;7.70;99.90;;;;;;5012010;28;20505;-73
2023/12/05 12:51:55;;;;;;;2.33;1.42;;;7.70;99.90;;;;;;5028689;28;20037;-73
2023/12/05 12:54:23;;;;;;;6.65;1.45;;;7.60;99.90;;;;;;5011092;28;20053;-73
2023/12/05 12:56:50;;;;;;;3.25;1.70;;;7.60;99.90;;;;;;5024389;28;20501;-73